Time;durP1;ratioP1;P1;durP2;ratioP2;P2;SDS_P1;SDS_P2;PMS_P1;PMS_P2;Temp;Humidity;BMP_temperature;BMP_pressure;BME280_temperature;BME280_humidity;BME280_pressure;Samples;Min_cycle;Max_cycle;Signal;HPM_P1;HPM_P2
2022/05/24 00:00:56;;;;;;;32.67;23.30;;;14.50;99.90;;;;;;5019915;28;20646;-54
2022/05/24 00:03:22;;;;;;;29.17;21.57;;;14.50;99.90;;;;;;5026644;28;20735;-54
2022/05/24 00:05:49;;;;;;;31.67;23.03;;;14.50;99.90;;;;;;5023559;28;20202;-53
2022/05/24 00:08:16;;;;;;;35.00;22.50;;;14.50;99.90;;;;;;5023084;28;20327;-54
2022/05/24 00:10:44;;;;;;;32.77;22.87;;;14.60;99.90;;;;;;5022533;28;20202;-54
2022/05/24 00:13:11;;;;;;;34.00;24.37;;;14.50;99.90;;;;;;5024634;28;20331;-54
2022/05/24 00:15:38;;;;;;;33.93;23.97;;;14.50;99.90;;;;;;5024286;28;20779;-54
2022/05/24 00:18:16;;;;;;;36.53;24.03;;;14.50;99.90;;;;;;5021991;28;20605;-54
2022/05/24 00:20:45;;;;;;;31.17;23.23;;;14.50;99.90;;;;;;5023984;28;20205;-54
2022/05/24 00:23:12;;;;;;;33.57;22.40;;;14.50;99.90;;;;;;5022664;28;20288;-53
2022/05/24 00:25:42;;;;;;;30.67;21.73;;;14.50;99.90;;;;;;5019073;28;20287;-53
2022/05/24 00:28:10;;;;;;;32.50;22.73;;;14.50;99.90;;;;;;5023108;28;20736;-55
2022/05/24 00:30:38;;;;;;;28.33;20.60;;;14.40;99.90;;;;;;5024295;28;20283;-53
2022/05/24 00:33:05;;;;;;;25.57;19.93;;;14.50;99.90;;;;;;5024439;28;20229;-53
2022/05/24 00:35:32;;;;;;;25.27;17.83;;;14.40;99.90;;;;;;5022781;28;20723;-55
2022/05/24 00:37:59;;;;;;;27.73;17.40;;;14.30;99.90;;;;;;5019272;28;20238;-53
2022/05/24 00:40:52;;;;;;;22.57;16.40;;;14.40;99.90;;;;;;5024025;28;20276;-54
2022/05/24 00:43:38;;;;;;;21.07;16.27;;;14.40;99.90;;;;;;5019362;28;20316;-53
2022/05/24 00:46:18;;;;;;;22.27;15.13;;;14.20;99.90;;;;;;5021785;28;20201;-53
2022/05/24 00:49:05;;;;;;;18.77;13.87;;;14.30;99.90;;;;;;5022426;28;20200;-54
2022/05/24 00:51:38;;;;;;;19.13;13.43;;;14.10;99.90;;;;;;5023844;28;20236;-53
2022/05/24 00:54:05;;;;;;;16.03;13.03;;;13.90;99.90;;;;;;5021587;28;20678;-54
2022/05/24 00:56:58;;;;;;;19.37;12.73;;;13.90;99.90;;;;;;5023504;28;20228;-53
2022/05/24 00:59:57;;;;;;;19.60;12.67;;;13.90;99.90;;;;;;5020126;28;20286;-53
2022/05/24 01:02:26;;;;;;;20.07;12.53;;;14.00;99.90;;;;;;5021684;28;20224;-52
2022/05/24 01:04:53;;;;;;;19.60;13.00;;;13.90;99.90;;;;;;5020677;28;20200;-53
2022/05/24 01:07:19;;;;;;;18.30;12.93;;;13.90;99.90;;;;;;5022870;28;20376;-52
2022/05/24 01:10:00;;;;;;;17.80;11.83;;;14.10;99.90;;;;;;5021506;28;20312;-53
2022/05/24 01:13:00;;;;;;;15.40;11.97;;;14.00;99.90;;;;;;5021885;28;20288;-54
2022/05/24 01:15:27;;;;;;;17.43;12.10;;;13.80;99.90;;;;;;5022888;28;20220;-53
2022/05/24 01:17:57;;;;;;;18.70;11.33;;;13.80;99.90;;;;;;5018342;28;20217;-53
2022/05/24 01:20:24;;;;;;;16.90;11.50;;;13.90;99.90;;;;;;5019890;28;21468;-52
2022/05/24 01:23:21;;;;;;;16.57;10.90;;;13.70;99.90;;;;;;5022724;28;20743;-53
2022/05/24 01:26:15;;;;;;;14.93;9.80;;;13.70;99.90;;;;;;5024089;28;20217;-55
2022/05/24 01:28:58;;;;;;;15.37;9.77;;;13.60;99.90;;;;;;5018108;28;20204;-54
2022/05/24 01:36:09;;;;;;;19.80;9.73;;;13.60;99.90;;;;;;5025784;28;20632;-53
2022/05/24 01:37:00;;;;;;;10.53;7.90;;;13.50;99.90;;;;;;5019937;28;20228;-53
2022/05/24 01:39:27;;;;;;;18.73;8.10;;;13.50;99.90;;;;;;5019507;28;20974;-53
2022/05/24 01:41:54;;;;;;;12.30;6.80;;;13.40;99.90;;;;;;5022499;28;20232;-53
2022/05/24 01:44:40;;;;;;;12.43;7.20;;;13.50;99.90;;;;;;5020429;28;20209;-54
2022/05/24 01:47:07;;;;;;;11.60;7.43;;;13.50;99.90;;;;;;5018692;28;20243;-54
2022/05/24 01:49:36;;;;;;;11.93;6.97;;;13.50;99.90;;;;;;5021369;28;20284;-54
2022/05/24 01:52:17;;;;;;;15.97;8.10;;;13.40;99.90;;;;;;5019662;28;20730;-53
2022/05/24 01:54:49;;;;;;;10.87;6.17;;;13.30;99.90;;;;;;5021459;28;20287;-54
2022/05/24 01:57:17;;;;;;;12.40;6.77;;;13.30;99.90;;;;;;5020806;28;20291;-54
2022/05/24 01:59:46;;;;;;;13.50;6.23;;;13.30;99.90;;;;;;5020798;28;20224;-54
2022/05/24 02:02:13;;;;;;;11.37;5.53;;;13.30;99.90;;;;;;5020039;28;20239;-55
2022/05/24 02:04:40;;;;;;;14.73;5.70;;;13.10;99.90;;;;;;5020554;28;20247;-53
2022/05/24 02:07:10;;;;;;;9.67;6.07;;;13.30;99.90;;;;;;5023162;28;21695;-54
2022/05/24 02:09:40;;;;;;;9.30;4.50;;;13.30;99.90;;;;;;5022095;28;20205;-54
2022/05/24 02:12:32;;;;;;;8.10;5.20;;;13.20;99.90;;;;;;5017938;28;20645;-54
2022/05/24 02:15:05;;;;;;;11.23;4.63;;;13.20;99.90;;;;;;5019667;28;20285;-54
2022/05/24 02:18:10;;;;;;;7.93;4.57;;;13.30;99.90;;;;;;5022846;28;20298;-53
2022/05/24 02:20:39;;;;;;;11.60;5.17;;;13.20;99.90;;;;;;5019663;28;20967;-52
2022/05/24 02:23:08;;;;;;;8.97;4.57;;;13.10;99.90;;;;;;5021688;28;20271;-53
2022/05/24 02:25:38;;;;;;;10.80;4.73;;;13.00;99.90;;;;;;5021606;28;20327;-54
2022/05/24 02:28:09;;;;;;;9.03;4.53;;;13.00;99.90;;;;;;5019536;28;20225;-53
2022/05/24 02:30:49;;;;;;;9.27;4.77;;;13.00;99.90;;;;;;5021539;28;20201;-53
2022/05/24 02:33:18;;;;;;;7.70;4.20;;;13.00;99.90;;;;;;5020063;28;20281;-53
2022/05/24 02:35:45;;;;;;;7.47;4.07;;;13.20;99.90;;;;;;5021794;28;20219;-55
2022/05/24 02:38:12;;;;;;;11.13;4.30;;;13.10;99.90;;;;;;5020887;28;20254;-54
2022/05/24 02:43:24;;;;;;;8.93;4.03;;;13.10;99.90;;;;;;5016162;28;20299;-53
2022/05/24 02:45:52;;;;;;;9.57;3.73;;;13.00;99.90;;;;;;5021212;28;20189;-53
2022/05/24 02:48:19;;;;;;;10.33;3.93;;;13.00;99.90;;;;;;5018388;28;20755;-53
2022/05/24 02:50:46;;;;;;;8.23;3.70;;;12.90;99.90;;;;;;5019578;28;20300;-53
2022/05/24 02:53:12;;;;;;;7.40;3.33;;;12.80;99.90;;;;;;5021310;28;20310;-53
2022/05/24 02:55:39;;;;;;;8.00;3.47;;;12.90;99.90;;;;;;5022360;28;20268;-54
2022/05/24 02:58:06;;;;;;;6.37;3.07;;;12.80;99.90;;;;;;5015272;28;20662;-55
2022/05/24 03:00:33;;;;;;;5.03;3.23;;;12.90;99.90;;;;;;5020582;28;20279;-54
2022/05/24 03:03:00;;;;;;;11.03;3.70;;;13.00;99.90;;;;;;5019037;28;20311;-54
2022/05/24 03:05:28;;;;;;;8.97;4.60;;;12.90;99.90;;;;;;5017301;28;20289;-53
2022/05/24 03:10:41;;;;;;;5.20;2.93;;;13.10;99.90;;;;;;5019940;28;20250;-53
2022/05/24 03:15:55;;;;;;;5.40;2.50;;;13.00;99.90;;;;;;5021237;28;20197;-55
2022/05/24 03:18:23;;;;;;;5.43;2.83;;;13.10;99.90;;;;;;5020290;28;20664;-54
2022/05/24 03:20:50;;;;;;;6.20;2.77;;;13.00;99.90;;;;;;5019391;28;20279;-54
2022/05/24 03:23:17;;;;;;;6.83;3.07;;;13.00;99.90;;;;;;5021593;28;20766;-54
2022/05/24 03:28:32;;;;;;;7.23;3.40;;;13.00;99.90;;;;;;5019229;28;20295;-53
2022/05/24 03:31:03;;;;;;;7.20;3.33;;;12.70;99.90;;;;;;5019462;28;20195;-56
2022/05/24 03:33:30;;;;;;;5.67;3.07;;;12.70;99.90;;;;;;5020562;28;20819;-54
2022/05/24 03:35:57;;;;;;;10.23;3.67;;;12.80;99.90;;;;;;5019519;28;20680;-53
2022/05/24 03:38:23;;;;;;;7.67;3.93;;;12.70;99.90;;;;;;5021197;28;20244;-53
2022/05/24 03:40:50;;;;;;;10.77;4.17;;;12.70;99.90;;;;;;5016734;28;20228;-54
2022/05/24 03:43:17;;;;;;;8.63;4.23;;;12.70;99.90;;;;;;5018561;28;20236;-54
2022/05/24 03:45:44;;;;;;;15.13;5.10;;;12.70;99.90;;;;;;5017000;28;20640;-54
2022/05/24 03:48:13;;;;;;;11.30;4.70;;;12.70;99.90;;;;;;5021044;28;20201;-53
2022/05/24 03:50:40;;;;;;;8.43;4.83;;;12.80;99.90;;;;;;5020470;28;20628;-53
2022/05/24 03:53:07;;;;;;;8.27;4.67;;;12.90;99.90;;;;;;5020495;28;20335;-55
2022/05/24 03:55:34;;;;;;;10.87;5.00;;;12.70;99.90;;;;;;5018717;28;20732;-54
2022/05/24 03:58:01;;;;;;;9.03;5.10;;;12.80;99.90;;;;;;5018086;28;20238;-54
2022/05/24 04:00:35;;;;;;;9.27;4.90;;;12.90;99.90;;;;;;5017213;28;20205;-54
2022/05/24 04:03:03;;;;;;;10.80;4.63;;;12.70;99.90;;;;;;5019194;28;20207;-54
2022/05/24 04:05:31;;;;;;;8.30;4.23;;;12.80;99.90;;;;;;5021746;28;20205;-55
2022/05/24 04:07:59;;;;;;;12.73;5.97;;;12.80;99.90;;;;;;5024624;28;20262;-54
2022/05/24 04:10:27;;;;;;;8.03;4.80;;;12.90;99.90;;;;;;5025062;28;20203;-53
2022/05/24 04:12:54;;;;;;;8.27;5.10;;;13.00;99.90;;;;;;5015198;28;20193;-53
2022/05/24 04:15:21;;;;;;;10.73;5.13;;;13.00;99.90;;;;;;5017662;28;20212;-54
2022/05/24 04:17:47;;;;;;;10.67;4.53;;;13.10;99.90;;;;;;5018247;28;20204;-54
2022/05/24 04:20:15;;;;;;;7.97;4.73;;;12.90;99.90;;;;;;5018988;28;20291;-54
2022/05/24 04:22:43;;;;;;;9.43;5.20;;;12.80;99.90;;;;;;5019915;28;20235;-54
2022/05/24 04:25:13;;;;;;;8.97;5.37;;;13.00;99.90;;;;;;5021352;28;20341;-53
2022/05/24 04:27:40;;;;;;;8.97;5.23;;;13.00;99.90;;;;;;5018658;28;20538;-56
2022/05/24 04:30:09;;;;;;;10.63;5.70;;;12.80;99.90;;;;;;5022722;28;20235;-54
2022/05/24 04:32:35;;;;;;;8.50;5.80;;;12.90;99.90;;;;;;5028110;28;20232;-55
2022/05/24 04:35:03;;;;;;;10.03;6.10;;;12.90;99.90;;;;;;5026120;28;20228;-54
2022/05/24 04:37:30;;;;;;;9.70;5.40;;;12.90;99.90;;;;;;5023170;28;20208;-54
2022/05/24 04:39:56;;;;;;;14.87;5.90;;;12.80;99.90;;;;;;5023999;28;20220;-54
2022/05/24 04:42:23;;;;;;;11.40;6.10;;;12.80;99.90;;;;;;5022798;28;21055;-53
2022/05/24 04:44:57;;;;;;;11.07;5.63;;;12.80;99.90;;;;;;5023946;28;20311;-55
2022/05/24 04:47:30;;;;;;;11.87;6.37;;;12.80;99.90;;;;;;5021697;28;20585;-53
2022/05/24 04:50:00;;;;;;;8.03;5.67;;;12.70;99.90;;;;;;5022106;28;20283;-55
2022/05/24 04:52:30;;;;;;;15.10;5.90;;;12.70;99.90;;;;;;5021644;28;20343;-54
2022/05/24 04:54:57;;;;;;;11.27;5.20;;;12.90;99.90;;;;;;5023238;28;20315;-54
2022/05/24 04:57:24;;;;;;;9.80;5.97;;;12.90;99.90;;;;;;5022684;28;20296;-53
2022/05/24 04:59:52;;;;;;;10.73;5.30;;;12.80;99.90;;;;;;5023253;28;20772;-54
2022/05/24 05:02:19;;;;;;;11.77;5.80;;;12.80;99.90;;;;;;5026593;28;20227;-53
2022/05/24 05:04:46;;;;;;;8.73;5.17;;;12.90;99.90;;;;;;5024541;28;20215;-53
2022/05/24 05:07:21;;;;;;;7.80;5.13;;;13.00;99.90;;;;;;4999606;28;20236;-53
2022/05/24 05:09:50;;;;;;;10.13;5.60;;;12.80;99.90;;;;;;5024426;28;20223;-54
2022/05/24 05:12:18;;;;;;;10.33;4.87;;;13.00;99.90;;;;;;5020892;28;20212;-53
2022/05/24 05:14:45;;;;;;;9.43;4.70;;;13.10;99.90;;;;;;5015738;28;20652;-54
2022/05/24 05:17:13;;;;;;;9.43;4.20;;;13.00;99.90;;;;;;5019410;28;20203;-53
2022/05/24 05:19:40;;;;;;;8.53;4.00;;;12.80;99.90;;;;;;5015476;28;20396;-56
2022/05/24 05:22:07;;;;;;;8.07;4.20;;;12.70;99.90;;;;;;5022014;28;20236;-54
2022/05/24 05:24:35;;;;;;;9.23;4.50;;;12.80;99.90;;;;;;5021250;28;20221;-54
2022/05/24 05:27:02;;;;;;;12.73;4.30;;;12.80;99.90;;;;;;5021800;28;20279;-54
2022/05/24 05:32:26;;;;;;;9.40;4.83;;;13.00;99.90;;;;;;5020692;28;20200;-55
2022/05/24 05:34:53;;;;;;;8.67;4.53;;;12.80;99.90;;;;;;5022415;28;20664;-53
2022/05/24 05:37:20;;;;;;;7.77;4.77;;;12.90;99.90;;;;;;5018282;28;20293;-53
2022/05/24 05:39:47;;;;;;;8.53;4.67;;;12.90;99.90;;;;;;5025963;28;20287;-56
2022/05/24 05:42:14;;;;;;;7.30;4.50;;;13.00;99.90;;;;;;5025072;28;20220;-54
2022/05/24 05:44:40;;;;;;;6.60;4.10;;;12.90;99.90;;;;;;5020605;28;20232;-54
2022/05/24 05:47:08;;;;;;;7.90;4.07;;;12.90;99.90;;;;;;5019538;28;20299;-54
2022/05/24 05:49:35;;;;;;;9.53;4.00;;;12.80;99.90;;;;;;5022248;28;20295;-55
2022/05/24 05:52:02;;;;;;;8.63;3.77;;;12.90;99.90;;;;;;5028884;28;20203;-54
2022/05/24 05:54:29;;;;;;;9.77;4.80;;;13.00;99.90;;;;;;5019065;28;20283;-53
2022/05/24 05:56:56;;;;;;;9.37;3.70;;;12.90;99.90;;;;;;5012713;28;21178;-55
2022/05/24 05:59:23;;;;;;;5.93;3.57;;;13.00;99.90;;;;;;5010403;28;20356;-54
2022/05/24 06:01:49;;;;;;;7.93;3.50;;;12.90;99.90;;;;;;5004556;28;20292;-58
2022/05/24 06:04:16;;;;;;;6.47;3.70;;;13.00;99.90;;;;;;5014878;28;20344;-56
2022/05/24 06:06:46;;;;;;;7.60;4.17;;;12.90;99.90;;;;;;5015743;28;20199;-55
2022/05/24 06:09:13;;;;;;;7.33;4.13;;;12.90;99.90;;;;;;5019180;28;20638;-54
2022/05/24 06:11:41;;;;;;;6.57;4.50;;;13.00;99.90;;;;;;5019673;28;20724;-54
2022/05/24 06:14:09;;;;;;;6.63;4.27;;;13.00;99.90;;;;;;5013222;28;20208;-53
2022/05/24 06:16:36;;;;;;;11.40;4.00;;;13.10;99.90;;;;;;5016770;28;20247;-53
2022/05/24 06:19:05;;;;;;;8.30;3.63;;;13.00;99.90;;;;;;5020864;28;21120;-52
2022/05/24 06:21:35;;;;;;;6.00;3.97;;;13.00;99.90;;;;;;5018998;28;20227;-53
2022/05/24 06:24:03;;;;;;;9.57;3.90;;;13.30;99.90;;;;;;5008299;28;20237;-53
2022/05/24 06:26:31;;;;;;;8.30;3.67;;;13.10;99.90;;;;;;5024027;28;20621;-53
2022/05/24 06:28:59;;;;;;;8.17;3.83;;;13.40;99.90;;;;;;5018430;28;20197;-54
2022/05/24 06:31:26;;;;;;;7.33;4.20;;;13.50;99.90;;;;;;5019927;28;20207;-55
2022/05/24 06:33:53;;;;;;;8.67;3.73;;;13.40;99.90;;;;;;5032965;28;20679;-53
2022/05/24 06:36:20;;;;;;;8.73;3.70;;;13.30;99.90;;;;;;5024425;28;20664;-53
2022/05/24 06:38:47;;;;;;;9.93;3.83;;;13.50;99.90;;;;;;5023385;28;20233;-53
2022/05/24 06:41:14;;;;;;;10.53;3.77;;;13.60;99.90;;;;;;5035245;28;20610;-53
2022/05/24 06:43:40;;;;;;;3.87;3.37;;;13.60;99.90;;;;;;5012084;28;20281;-55
2022/05/24 06:46:08;;;;;;;6.00;3.43;;;14.00;99.90;;;;;;5021143;28;20638;-54
2022/05/24 06:48:42;;;;;;;11.47;3.10;;;14.10;99.90;;;;;;5025357;28;20209;-53
2022/05/24 06:51:11;;;;;;;6.47;3.73;;;14.10;99.90;;;;;;5028210;28;20200;-52
2022/05/24 06:53:40;;;;;;;6.40;3.47;;;14.00;99.90;;;;;;5027334;28;20195;-55
2022/05/24 06:56:07;;;;;;;7.90;4.83;;;13.90;99.90;;;;;;5027902;28;20283;-53
2022/05/24 06:58:34;;;;;;;7.67;5.53;;;13.80;99.90;;;;;;5015702;28;20233;-54
2022/05/24 07:03:48;;;;;;;8.20;6.97;;;13.80;99.90;;;;;;5030218;28;20214;-54
2022/05/24 07:06:16;;;;;;;9.73;6.57;;;13.70;99.90;;;;;;5021600;28;20225;-54
2022/05/24 07:08:43;;;;;;;10.13;7.83;;;13.90;99.90;;;;;;5029094;28;20324;-54
2022/05/24 07:11:11;;;;;;;12.63;7.37;;;13.80;99.90;;;;;;5029289;28;20284;-54
2022/05/24 07:13:39;;;;;;;9.90;7.10;;;13.90;99.90;;;;;;5023295;28;20701;-53
2022/05/24 07:16:10;;;;;;;10.27;6.33;;;13.80;99.90;;;;;;5023717;28;20287;-55
2022/05/24 07:18:37;;;;;;;8.47;6.20;;;13.90;99.90;;;;;;5021559;28;20205;-53
2022/05/24 07:21:05;;;;;;;7.60;6.13;;;13.80;99.90;;;;;;5025340;28;20239;-53
2022/05/24 07:23:37;;;;;;;9.27;6.30;;;13.90;99.90;;;;;;5022069;28;20656;-53
2022/05/24 07:26:13;;;;;;;7.10;5.37;;;13.90;99.90;;;;;;5015377;28;20263;-53
2022/05/24 07:28:59;;;;;;;7.23;4.93;;;13.80;99.90;;;;;;5014647;28;20212;-53
2022/05/24 07:31:26;;;;;;;6.00;4.40;;;14.10;99.90;;;;;;5024305;28;20196;-54
2022/05/24 07:33:53;;;;;;;7.20;3.93;;;14.30;99.90;;;;;;5028138;28;20197;-55
2022/05/24 07:36:20;;;;;;;6.97;3.90;;;14.40;99.90;;;;;;5016377;28;20221;-55
2022/05/24 07:38:47;;;;;;;5.60;4.10;;;14.30;99.90;;;;;;5023367;28;20723;-53
2022/05/24 07:46:45;;;;;;;3.50;3.17;;;14.10;99.90;;;;;;5014653;28;20227;-53
2022/05/24 07:49:12;;;;;;;5.40;3.10;;;14.10;99.90;;;;;;5017041;28;20210;-53
2022/05/24 07:51:39;;;;;;;5.20;2.90;;;14.30;99.90;;;;;;5022334;28;20201;-52
2022/05/24 07:54:05;;;;;;;2.90;2.70;;;14.40;99.90;;;;;;5018963;28;20244;-53
2022/05/24 07:56:32;;;;;;;7.30;2.57;;;14.20;99.90;;;;;;5027426;28;20200;-52
2022/05/24 07:58:59;;;;;;;3.70;2.83;;;14.20;99.90;;;;;;5025483;28;20613;-53
2022/05/24 08:01:26;;;;;;;8.13;2.67;;;14.10;99.90;;;;;;5022491;28;20661;-53
2022/05/24 08:03:53;;;;;;;4.40;2.63;;;14.20;99.90;;;;;;5027350;28;20205;-53
2022/05/24 08:06:20;;;;;;;5.47;2.80;;;14.40;99.90;;;;;;5030666;28;20220;-54
2022/05/24 08:08:47;;;;;;;6.83;2.50;;;14.50;99.90;;;;;;5018624;28;20244;-55
2022/05/24 08:11:13;;;;;;;5.80;2.97;;;14.30;99.90;;;;;;5023618;28;20606;-54
2022/05/24 08:13:40;;;;;;;6.20;3.40;;;14.30;99.90;;;;;;5020327;28;20196;-53
2022/05/24 08:16:07;;;;;;;4.87;4.10;;;14.20;99.90;;;;;;5025966;28;20248;-55
2022/05/24 08:18:34;;;;;;;6.37;3.93;;;13.90;99.90;;;;;;5027485;28;20200;-53
2022/05/24 08:21:01;;;;;;;4.73;3.93;;;13.60;99.90;;;;;;5021658;28;20715;-52
2022/05/24 08:23:28;;;;;;;5.60;3.97;;;13.60;99.90;;;;;;5018189;28;20566;-53
2022/05/24 08:25:55;;;;;;;6.93;4.33;;;13.80;99.90;;;;;;5027243;28;20291;-52
2022/05/24 08:28:22;;;;;;;5.50;4.30;;;13.80;99.90;;;;;;5014952;28;20317;-55
2022/05/24 08:30:50;;;;;;;5.03;4.00;;;13.90;99.90;;;;;;5027427;28;20251;-53
2022/05/24 08:33:17;;;;;;;5.27;4.03;;;14.00;99.90;;;;;;5032053;28;20411;-53
2022/05/24 08:35:45;;;;;;;3.87;2.87;;;14.00;99.90;;;;;;5028437;28;20212;-53
2022/05/24 08:38:12;;;;;;;4.50;2.70;;;14.20;99.90;;;;;;5025027;28;20317;-54
2022/05/24 08:40:41;;;;;;;10.17;3.20;;;14.20;99.90;;;;;;5026702;28;20648;-54
2022/05/24 08:43:36;;;;;;;5.17;2.57;;;14.10;99.90;;;;;;5024129;28;20230;-53
2022/05/24 08:49:13;;;;;;;3.77;2.67;;;13.90;99.90;;;;;;5029294;28;20292;-53
2022/05/24 08:51:46;;;;;;;4.07;2.70;;;13.60;99.90;;;;;;5018727;28;20263;-53
2022/05/24 08:54:21;;;;;;;4.27;3.27;;;13.20;99.90;;;;;;5016052;28;20197;-54
2022/05/24 08:56:52;;;;;;;4.80;3.20;;;13.20;99.90;;;;;;5025659;28;20232;-53
2022/05/24 08:59:26;;;;;;;4.07;3.13;;;13.00;99.90;;;;;;5020362;28;20240;-53
2022/05/24 09:01:53;;;;;;;3.87;3.23;;;13.00;99.90;;;;;;5029021;28;20202;-53
2022/05/24 09:04:20;;;;;;;6.73;4.00;;;13.20;99.90;;;;;;5031800;28;20235;-54
2022/05/24 09:07:06;;;;;;;5.33;3.73;;;13.30;99.90;;;;;;5020542;28;20613;-54
2022/05/24 09:09:59;;;;;;;4.03;3.37;;;13.40;99.90;;;;;;5028911;28;20231;-53
2022/05/24 09:12:37;;;;;;;8.10;4.50;;;13.70;99.90;;;;;;5010695;28;20267;-52
2022/05/24 09:15:31;;;;;;;4.50;4.00;;;13.70;99.90;;;;;;5027459;28;20228;-52
2022/05/24 09:18:26;;;;;;;4.77;3.77;;;13.80;99.90;;;;;;5031207;28;20224;-52
2022/05/24 09:20:53;;;;;;;4.17;3.50;;;13.70;99.90;;;;;;5022245;28;20294;-53
2022/05/24 09:23:25;;;;;;;7.50;3.70;;;13.70;99.90;;;;;;5031031;28;20222;-53
2022/05/24 09:26:09;;;;;;;5.43;3.37;;;13.60;99.90;;;;;;5030879;28;20279;-53
2022/05/24 09:28:56;;;;;;;3.40;3.10;;;13.60;99.90;;;;;;5011424;28;20239;-53
2022/05/24 09:31:26;;;;;;;5.83;3.07;;;13.40;99.90;;;;;;5024852;28;20570;-53
2022/05/24 09:33:59;;;;;;;2.90;2.70;;;13.30;99.90;;;;;;5031616;28;20299;-53
2022/05/24 09:36:40;;;;;;;4.17;2.37;;;13.20;99.90;;;;;;5031110;28;20267;-53
2022/05/24 09:39:38;;;;;;;2.03;1.73;;;13.10;99.90;;;;;;5030716;28;20241;-52
2022/05/24 09:42:22;;;;;;;2.27;1.67;;;13.00;99.90;;;;;;5023216;28;20204;-53
2022/05/24 09:44:57;;;;;;;2.50;2.27;;;13.20;99.90;;;;;;5033175;28;20258;-53
2022/05/24 09:47:30;;;;;;;3.50;2.10;;;13.50;99.90;;;;;;5025662;28;20259;-52
2022/05/24 09:50:18;;;;;;;4.97;2.10;;;13.60;99.90;;;;;;5051457;28;20239;-53
2022/05/24 09:53:06;;;;;;;3.70;2.30;;;13.90;99.90;;;;;;5022741;28;20702;-53
2022/05/24 09:55:59;;;;;;;3.37;1.93;;;14.50;99.90;;;;;;5033696;28;20252;-53
2022/05/24 09:58:34;;;;;;;2.70;2.47;;;14.70;99.90;;;;;;5019463;28;20225;-53
2022/05/24 10:01:30;;;;;;;5.13;1.97;;;14.60;99.90;;;;;;5044493;28;20212;-53
2022/05/24 10:04:12;;;;;;;3.13;2.03;;;14.50;99.90;;;;;;5029568;28;20209;-52
2022/05/24 10:06:42;;;;;;;3.57;1.90;;;15.00;99.90;;;;;;5019036;28;20576;-52
2022/05/24 10:09:17;;;;;;;4.03;1.90;;;15.10;99.90;;;;;;5017562;28;20706;-53
2022/05/24 10:12:02;;;;;;;1.83;1.60;;;14.90;99.90;;;;;;5043074;28;20237;-52
2022/05/24 10:14:40;;;;;;;4.43;1.67;;;14.70;99.90;;;;;;5028833;28;20308;-53
2022/05/24 10:17:14;;;;;;;2.40;1.00;;;14.90;99.90;;;;;;5017284;28;20207;-53
2022/05/24 10:20:05;;;;;;;3.77;0.83;;;15.20;99.90;;;;;;5015609;28;20707;-53
2022/05/24 10:22:40;;;;;;;2.63;0.60;;;14.80;99.90;;;;;;5032262;28;20289;-52
2022/05/24 10:25:16;;;;;;;1.67;0.90;;;15.00;99.90;;;;;;5022542;28;20289;-53
2022/05/24 10:27:51;;;;;;;1.73;0.90;;;14.80;99.90;;;;;;5028015;28;20203;-52
2022/05/24 10:30:29;;;;;;;1.63;1.17;;;14.70;99.90;;;;;;5018506;28;20328;-54
2022/05/24 10:39:43;;;;;;;1.43;1.30;;;14.80;99.90;;;;;;5024078;28;20658;-53
2022/05/24 10:42:27;;;;;;;4.20;1.60;;;15.00;99.90;;;;;;5029437;28;20686;-53
2022/05/24 10:45:07;;;;;;;2.33;1.90;;;14.90;99.90;;;;;;5020263;28;20534;-53
2022/05/24 10:47:53;;;;;;;1.63;1.53;;;14.90;99.90;;;;;;5021943;28;20205;-53
2022/05/24 10:50:35;;;;;;;2.53;1.73;;;14.80;99.90;;;;;;5030510;28;20200;-52
2022/05/24 10:53:15;;;;;;;1.87;1.40;;;15.40;99.90;;;;;;5021452;28;20204;-53
2022/05/24 10:55:46;;;;;;;2.87;1.70;;;15.80;1.00;;;;;;5028759;28;20626;-54
2022/05/24 10:58:17;;;;;;;1.53;1.30;;;16.10;1.00;;;;;;5018319;28;20299;-53
2022/05/24 11:00:51;;;;;;;1.93;1.33;;;15.60;1.00;;;;;;5036157;28;20735;-53
2022/05/24 11:03:30;;;;;;;1.90;1.17;;;15.90;1.00;;;;;;5024716;28;20206;-53
2022/05/24 11:05:57;;;;;;;4.17;1.83;;;15.80;99.90;;;;;;5020426;28;20223;-53
2022/05/24 11:08:46;;;;;;;3.57;1.77;;;15.60;1.00;;;;;;5026954;28;20273;-54
2022/05/24 11:11:41;;;;;;;1.90;1.30;;;15.50;1.00;;;;;;5029910;28;20233;-52
2022/05/24 11:14:26;;;;;;;5.93;1.70;;;15.40;1.00;;;;;;5021856;28;20242;-53
2022/05/24 11:16:54;;;;;;;4.43;1.53;;;15.30;1.00;;;;;;5030442;28;20313;-53
2022/05/24 11:19:37;;;;;;;3.23;1.50;;;14.80;1.00;;;;;;5026434;28;20242;-52
2022/05/24 11:22:21;;;;;;;3.07;1.60;;;14.90;99.90;;;;;;5028577;28;20729;-52
2022/05/24 11:25:12;;;;;;;3.30;1.60;;;15.70;99.90;;;;;;5031033;28;20673;-52
2022/05/24 11:27:46;;;;;;;2.27;1.30;;;16.50;99.90;;;;;;5029680;28;20216;-54
2022/05/24 11:30:32;;;;;;;3.57;1.20;;;16.40;1.00;;;;;;5028673;28;20205;-53
2022/05/24 11:33:02;;;;;;;2.33;1.50;;;15.90;99.90;;;;;;5033519;28;20268;-53
2022/05/24 11:35:52;;;;;;;3.87;1.20;;;16.30;1.00;;;;;;5028676;28;20634;-53
2022/05/24 11:38:22;;;;;;;1.00;0.73;;;17.00;99.90;;;;;;5023104;28;20243;-53
2022/05/24 11:40:59;;;;;;;0.90;0.70;;;17.20;99.90;;;;;;5026414;28;20599;-52
2022/05/24 11:43:35;;;;;;;1.63;0.47;;;17.00;1.00;;;;;;5029041;28;20192;-53
2022/05/24 11:46:27;;;;;;;2.07;0.60;;;17.00;1.00;;;;;;5023328;28;20214;-54
2022/05/24 11:48:56;;;;;;;1.03;0.60;;;17.10;1.00;;;;;;5016328;28;20203;-54
2022/05/24 11:51:40;;;;;;;1.73;0.60;;;17.50;99.90;;;;;;5018816;28;20233;-53
2022/05/24 11:54:16;;;;;;;2.23;1.10;;;17.40;99.90;;;;;;5017725;28;20696;-53
2022/05/24 11:57:01;;;;;;;1.93;0.80;;;17.00;1.00;;;;;;5014226;28;20240;-52
2022/05/24 11:59:40;;;;;;;0.90;0.60;;;17.00;99.90;;;;;;5018559;28;20200;-53
2022/05/24 12:02:23;;;;;;;2.53;0.70;;;16.80;54.60;;;;;;5017772;28;20195;-53
2022/05/24 12:08:30;;;;;;;2.67;0.90;;;17.60;52.60;;;;;;5020324;28;20306;-54
2022/05/24 12:11:05;;;;;;;2.53;0.70;;;17.20;99.90;;;;;;5020166;28;20239;-53
2022/05/24 12:13:44;;;;;;;1.40;0.93;;;16.60;1.00;;;;;;5013502;28;20210;-53
2022/05/24 12:16:31;;;;;;;1.53;0.90;;;16.40;1.00;;;;;;5018021;28;20201;-53
2022/05/24 12:19:07;;;;;;;1.33;0.70;;;16.50;1.00;;;;;;5018733;28;20200;-54
2022/05/24 12:21:42;;;;;;;1.53;0.60;;;16.50;1.00;;;;;;5021959;28;20651;-54
2022/05/24 12:24:45;;;;;;;1.43;0.90;;;16.30;1.00;;;;;;5023338;28;20577;-53
2022/05/24 12:27:47;;;;;;;3.00;0.60;;;16.10;1.00;;;;;;5021785;28;20592;-53
2022/05/24 12:30:46;;;;;;;2.47;0.90;;;16.00;99.90;;;;;;5028351;28;20669;-53
2022/05/24 12:33:19;;;;;;;3.10;1.10;;;15.80;1.00;;;;;;5019265;28;20306;-54
2022/05/24 12:36:01;;;;;;;4.13;1.37;;;15.20;38.30;;;;;;5019708;28;20311;-54
2022/05/24 12:38:29;;;;;;;1.87;1.37;;;15.10;1.00;;;;;;5013273;28;20238;-53
2022/05/24 12:41:14;;;;;;;3.37;1.30;;;15.00;1.00;;;;;;5009667;28;20731;-53
2022/05/24 12:44:12;;;;;;;2.60;1.40;;;15.50;1.00;;;;;;5009531;28;20663;-53
2022/05/24 12:47:10;;;;;;;3.63;1.03;;;16.10;1.00;;;;;;5019861;28;20578;-53
2022/05/24 12:49:56;;;;;;;1.67;1.20;;;16.30;99.90;;;;;;5019510;28;20210;-53
2022/05/24 12:52:27;;;;;;;2.13;0.83;;;16.60;1.00;;;;;;5014345;28;20234;-52
2022/05/24 12:54:56;;;;;;;2.13;1.17;;;16.60;1.00;;;;;;5016697;28;21193;-52
2022/05/24 12:57:39;;;;;;;1.60;0.63;;;17.20;99.90;;;;;;5014941;28;20240;-52
2022/05/24 13:00:18;;;;;;;0.80;0.50;;;17.30;99.90;;;;;;5011799;28;20199;-53
2022/05/24 13:02:47;;;;;;;0.80;0.40;;;17.30;1.00;;;;;;5017961;28;20205;-53
2022/05/24 13:05:18;;;;;;;1.67;0.97;;;17.70;99.90;;;;;;5015169;28;20231;-53
2022/05/24 13:07:51;;;;;;;2.00;0.77;;;17.60;1.00;;;;;;5012144;28;20317;-57
2022/05/24 13:10:21;;;;;;;1.27;1.07;;;17.80;1.00;;;;;;5028998;28;20246;-53
2022/05/24 13:12:57;;;;;;;1.53;0.87;;;17.80;1.00;;;;;;5009481;28;20608;-53
2022/05/24 13:15:40;;;;;;;1.20;1.00;;;17.90;1.00;;;;;;5015540;28;20193;-53
2022/05/24 13:18:26;;;;;;;1.93;0.53;;;18.10;1.00;;;;;;5022070;28;20286;-53
2022/05/24 13:20:55;;;;;;;3.03;0.90;;;17.60;99.90;;;;;;5017379;28;20243;-53
2022/05/24 13:23:24;;;;;;;0.80;0.60;;;17.00;1.00;;;;;;5036876;28;20262;-53
2022/05/24 13:26:11;;;;;;;2.63;0.50;;;16.60;1.00;;;;;;5030083;28;20215;-53
2022/05/24 13:28:38;;;;;;;2.20;0.90;;;16.90;99.90;;;;;;5030608;28;20243;-53
2022/05/24 13:34:17;;;;;;;1.10;0.67;;;17.10;1.00;;;;;;5030964;28;20548;-52
2022/05/24 13:37:12;;;;;;;3.10;0.60;;;17.10;1.00;;;;;;5030855;28;20291;-53
2022/05/24 13:39:39;;;;;;;1.23;0.60;;;16.90;99.90;;;;;;5030294;28;20664;-53
2022/05/24 13:42:25;;;;;;;0.80;0.40;;;16.90;1.00;;;;;;5020868;28;20232;-53
2022/05/24 13:45:16;;;;;;;0.43;0.33;;;17.00;1.00;;;;;;5016247;28;20238;-53
2022/05/24 13:47:43;;;;;;;0.60;0.40;;;17.10;99.90;;;;;;5029705;28;20224;-53
2022/05/24 13:50:29;;;;;;;0.50;0.30;;;17.60;99.90;;;;;;5031290;28;20210;-53
2022/05/24 13:53:27;;;;;;;2.27;0.40;;;17.50;1.00;;;;;;5017470;28;20203;-53
2022/05/24 13:56:06;;;;;;;1.07;0.57;;;17.70;1.00;;;;;;5023957;28;20271;-54
2022/05/24 13:58:38;;;;;;;1.30;0.40;;;18.20;1.00;;;;;;5015469;28;20281;-53